Horse Branch, Kentucky
Current Conditions -  °F | °C
As of 10:56 PM on Saturday 20 Dec 2014 (Local Time) from KOWB Reporting Station
Clear Clear  
Wind Chill: 29°   Ceiling: Unl
Heat Index: 29°   Visibility: 7mi
Dew Point: 26°   Wind: 0mph
Humidity: 88%   Direction: NA
Pressure: 30.3"   Gusts: NA
Location:  37.46°N, 86.68°W
Report Text: KOWB 210456Z AUTO 00000KT 7SM CLR M02/M03 A3030 RMK AO2 TSNO T10161033 SLP263
Loading
Personal Weather Stations






























Interactive Weather Map New forecast layout! Learn more

10-Day Weather Forecast

Advertisements
Track Severe Weather on mobile